Time;durP1;ratioP1;P1;durP2;ratioP2;P2;SDS_P1;SDS_P2;PMS_P1;PMS_P2;Temp;Humidity;BMP_temperature;BMP_pressure;BME280_temperature;BME280_humidity;BME280_pressure;Samples;Min_cycle;Max_cycle;Signal;HPM_P1;HPM_P2
2022/04/17 00:02:11;;;;;;;12.20;8.30;;;;;;;11.32;76.10;99161.76;25195;1316;3027738;-71
2022/04/17 00:04:41;;;;;;;16.60;10.40;;;;;;;11.37;75.78;99165.05;25169;1316;3026663;-73
2022/04/17 00:07:11;;;;;;;19.90;10.80;;;;;;;11.28;75.61;99173.08;25165;1319;3027296;-69
2022/04/17 00:09:40;;;;;;;21.00;11.80;;;;;;;11.09;76.32;99178.77;25199;1316;3026744;-73
2022/04/17 00:12:11;;;;;;;14.00;8.10;;;;;;;10.91;76.67;99175.20;25150;1315;3026390;-75
2022/04/17 00:15:02;;;;;;;19.50;10.30;;;;;;;11.47;75.34;99172.52;25178;1315;3056460;-71
2022/04/17 00:17:33;;;;;;;24.70;11.30;;;;;;;11.60;74.62;99170.20;25131;1319;3027063;-73
2022/04/17 00:20:04;;;;;;;24.60;13.30;;;;;;;11.33;74.90;99171.70;25113;1315;3026271;-73
2022/04/17 00:22:34;;;;;;;26.60;14.00;;;;;;;11.11;75.60;99169.35;25197;1316;3026949;-74
2022/04/17 00:25:13;;;;;;;30.10;14.20;;;;;;;11.00;76.43;99166.88;25052;1318;3026428;-72
2022/04/17 00:27:45;;;;;;;32.20;16.50;;;;;;;10.93;76.28;99164.73;25160;1316;3049608;-74
2022/04/17 00:30:15;;;;;;;26.80;13.40;;;;;;;10.86;76.49;99171.14;25103;1316;3028453;-72
2022/04/17 00:32:51;;;;;;;30.20;14.50;;;;;;;11.33;75.89;99172.73;25119;1316;3028697;-72
2022/04/17 00:35:24;;;;;;;33.80;18.30;;;;;;;11.83;74.16;99174.23;25199;1315;3056377;-74
2022/04/17 00:38:04;;;;;;;34.50;20.20;;;;;;;11.64;73.91;99178.19;25122;1316;3050214;-72
2022/04/17 00:40:34;;;;;;;33.80;19.10;;;;;;;11.47;74.32;99178.80;25157;1315;3052586;-73
2022/04/17 00:43:48;;;;;;;31.70;21.20;;;;;;;11.26;75.06;99188.48;25217;1316;3028640;-73
2022/04/17 00:46:18;;;;;;;28.90;17.40;;;;;;;10.95;76.09;99193.33;24998;1316;3069445;-70
2022/04/17 00:48:50;;;;;;;19.90;11.30;;;;;;;10.85;76.52;99192.78;25143;1316;3028716;-72
2022/04/17 00:51:20;;;;;;;10.90;6.90;;;;;;;11.23;75.52;99196.88;25124;1315;3027327;-72
2022/04/17 00:53:53;;;;;;;9.40;5.20;;;;;;;11.35;74.21;99193.30;25209;1316;3027513;-74
2022/04/17 00:56:25;;;;;;;7.40;4.70;;;;;;;11.09;74.88;99192.79;25754;1316;3026610;-72
2022/04/17 00:58:58;;;;;;;9.90;5.40;;;;;;;10.90;75.11;99195.06;25888;1316;3049425;-69
2022/04/17 01:01:47;;;;;;;13.00;4.80;;;;;;;10.36;76.74;99192.08;25700;1315;3053321;-73
2022/04/17 01:04:19;;;;;;;13.00;4.40;;;;;;;9.98;77.88;99196.69;25093;1316;3026260;-73
2022/04/17 01:06:55;;;;;;;7.90;4.50;;;;;;;9.70;79.41;99194.08;25109;1315;3070429;-73
2022/04/17 01:09:24;;;;;;;13.10;7.40;;;;;;;10.10;78.43;99181.11;25197;1316;3026695;-72
2022/04/17 01:11:55;;;;;;;20.50;10.70;;;;;;;10.36;77.02;99177.00;25159;1316;3026753;-71
2022/04/17 01:14:36;;;;;;;23.00;13.60;;;;;;;10.30;77.18;99174.94;25096;1318;3026265;-70
2022/04/17 01:17:06;;;;;;;35.50;16.70;;;;;;;10.40;76.50;99181.86;25147;1316;3059511;-70
2022/04/17 01:19:37;;;;;;;39.80;18.20;;;;;;;10.10;77.11;99189.13;25193;1316;3026360;-72
2022/04/17 01:22:09;;;;;;;33.00;17.50;;;;;;;9.65;78.36;99197.52;25095;1316;3028512;-71
2022/04/17 01:27:30;;;;;;;31.50;16.10;;;;;;;10.02;77.92;99199.46;25109;1316;3071904;-73
2022/04/17 01:30:00;;;;;;;21.20;10.90;;;;;;;9.99;77.13;99203.48;25155;1314;3027337;-70
2022/04/17 01:32:29;;;;;;;16.70;7.90;;;;;;;9.73;77.56;99206.79;25130;1315;3026950;-69
2022/04/17 01:35:06;;;;;;;13.20;7.20;;;;;;;9.45;78.61;99210.61;25185;1315;3052821;-72
2022/04/17 01:37:37;;;;;;;15.40;5.40;;;;;;;9.20;79.04;99212.42;25221;1316;3027904;-72
2022/04/17 01:40:11;;;;;;;4.80;3.80;;;;;;;8.84;80.45;99215.42;25094;1315;3028000;-71
2022/04/17 01:42:44;;;;;;;5.90;3.40;;;;;;;9.10;79.64;99215.47;25137;1316;3055817;-69
2022/04/17 01:45:20;;;;;;;10.00;3.60;;;;;;;9.23;78.45;99215.55;25207;1315;3026750;-71
2022/04/17 01:47:54;;;;;;;7.90;4.20;;;;;;;9.22;78.22;99213.04;25176;1316;3066625;-72
2022/04/17 01:50:27;;;;;;;8.20;3.60;;;;;;;9.02;77.91;99215.44;25197;1316;3048416;-73
2022/04/17 01:53:00;;;;;;;6.30;3.60;;;;;;;8.69;78.48;99216.06;25157;1315;3026476;-73
2022/04/17 01:55:39;;;;;;;4.30;2.60;;;;;;;8.37;80.08;99219.55;25143;1315;3054056;-72
2022/04/17 01:58:09;;;;;;;4.90;3.20;;;;;;;8.84;79.01;99216.63;25100;1315;3029555;-71
2022/04/17 02:00:40;;;;;;;6.50;3.20;;;;;;;9.04;77.62;99216.67;25154;1316;3026934;-72
2022/04/17 02:03:12;;;;;;;6.00;3.20;;;;;;;8.75;77.82;99227.40;25128;1315;3027228;-70
2022/04/17 02:05:49;;;;;;;6.00;3.70;;;;;;;8.45;78.93;99229.11;25133;1316;3051377;-74
2022/04/17 02:08:21;;;;;;;8.50;3.00;;;;;;;8.39;78.65;99224.55;25168;1315;3026167;-71
2022/04/17 02:11:21;;;;;;;3.30;1.90;;;;;;;8.19;79.14;99221.10;25123;1314;3051745;-70
2022/04/17 02:13:51;;;;;;;5.10;2.40;;;;;;;8.65;77.91;99223.62;25178;1316;3052682;-73
2022/04/17 02:16:41;;;;;;;5.00;2.80;;;;;;;8.49;77.91;99224.67;25111;1316;3056760;-71
2022/04/17 02:19:11;;;;;;;5.40;3.00;;;;;;;8.31;78.71;99223.76;25135;1316;3029901;-72
2022/04/17 02:21:45;;;;;;;5.10;2.90;;;;;;;8.11;79.27;99223.10;25129;1316;3029883;-73
2022/04/17 02:24:18;;;;;;;4.30;2.50;;;;;;;7.77;80.40;99221.02;25162;1315;3055342;-70
2022/04/17 02:26:51;;;;;;;4.00;2.70;;;;;;;7.67;80.79;99220.17;25189;1316;3026743;-72
2022/04/17 02:29:20;;;;;;;4.10;2.90;;;;;;;8.09;79.96;99216.56;25237;1316;3026310;-72
2022/04/17 02:31:51;;;;;;;6.60;4.00;;;;;;;8.22;78.97;99219.67;25196;1316;3026636;-72
2022/04/17 02:34:21;;;;;;;6.30;4.80;;;;;;;8.08;79.23;99214.55;25222;1316;3026428;-69
2022/04/17 02:36:53;;;;;;;10.50;5.70;;;;;;;7.87;79.73;99215.99;25148;1316;3026403;-71
2022/04/17 02:39:28;;;;;;;6.80;4.80;;;;;;;7.57;80.45;99224.33;25142;1315;3027046;-72
2022/04/17 02:41:57;;;;;;;8.60;6.20;;;;;;;7.38;81.28;99224.63;25125;1316;3049431;-71
2022/04/17 02:44:37;;;;;;;22.40;11.60;;;;;;;7.63;80.97;99211.67;25172;1316;3026967;-73
2022/04/17 02:50:07;;;;;;;34.50;19.00;;;;;;;7.64;80.40;99208.31;25144;1316;3070428;-71
2022/04/17 02:53:36;;;;;;;24.00;11.80;;;;;;;7.35;81.43;99209.98;25037;1321;3052575;-74
2022/04/17 02:56:09;;;;;;;14.50;7.90;;;;;;;7.26;82.35;99214.80;24976;1321;3051048;-69
2022/04/17 02:59:43;;;;;;;11.30;5.90;;;;;;;7.89;80.25;99209.27;24833;1327;3053307;-71
2022/04/17 03:05:38;;;;;;;12.70;7.70;;;;;;;7.43;80.27;99215.50;24934;1322;3051826;-68
2022/04/17 03:09:19;;;;;;;21.90;11.40;;;;;;;7.24;80.86;99222.88;25031;1324;3053469;-73
2022/04/17 03:16:08;;;;;;;10.70;6.30;;;;;;;7.82;79.12;99222.54;24879;1321;3068752;-69
2022/04/17 03:22:44;;;;;;;11.30;6.00;;;;;;;7.26;79.93;99244.05;25175;1315;3055333;-70
2022/04/17 03:26:04;;;;;;;6.70;3.80;;;;;;;7.05;80.78;99252.97;25121;1318;3055034;-71
2022/04/17 03:28:58;;;;;;;6.30;2.80;;;;;;;7.38;80.56;99252.15;25044;1318;3056262;-74
2022/04/17 03:31:31;;;;;;;5.60;3.50;;;;;;;7.71;78.96;99247.37;25069;1319;3052205;-72
2022/04/17 03:34:14;;;;;;;4.90;3.00;;;;;;;7.51;78.85;99247.31;25141;1315;3027474;-73
2022/04/17 03:36:54;;;;;;;6.20;3.20;;;;;;;7.38;79.23;99243.82;25192;1315;3052329;-70
2022/04/17 03:42:28;;;;;;;5.30;3.00;;;;;;;7.05;80.72;99244.04;25161;1315;3051613;-71
2022/04/17 03:46:06;;;;;;;7.00;3.90;;;;;;;7.62;78.63;99243.98;25150;1315;3027029;-70
2022/04/17 03:49:06;;;;;;;14.50;7.20;;;;;;;7.63;77.80;99243.91;25108;1316;3055657;-69
2022/04/17 03:52:46;;;;;;;26.10;11.40;;;;;;;7.38;78.83;99246.44;25144;1315;3058823;-69
2022/04/17 03:56:50;;;;;;;;;;;;;;;;;;;;;
2022/04/17 04:00:31;;;;;;;14.00;7.10;;;;;;;7.38;79.91;99243.60;25162;1315;3054462;-73
2022/04/17 04:06:44;;;;;;;16.10;9.70;;;;;;;7.90;76.72;99236.02;25215;1315;3068864;-72
2022/04/17 04:10:37;;;;;;;;;;;;;;;;;;;;;
2022/04/17 04:14:05;;;;;;;;;;;;;;;;;;;;;
2022/04/17 04:17:05;;;;;;;11.80;7.00;;;;;;;7.34;79.50;99250.77;24948;1315;3053921;-72
2022/04/17 04:19:37;;;;;;;9.80;6.80;;;;;;;7.89;77.39;99255.64;25130;1315;3026162;-73
2022/04/17 04:22:08;;;;;;;15.40;8.50;;;;;;;7.98;76.51;99253.58;25145;1315;3027434;-71
2022/04/17 04:24:52;;;;;;;47.40;18.60;;;;;;;7.86;77.10;99254.94;25155;1315;3026340;-73
2022/04/17 04:30:43;;;;;;;73.90;33.10;;;;;;;7.63;77.63;99250.88;25182;1315;3069535;-71
2022/04/17 04:33:40;;;;;;;60.80;30.70;;;;;;;7.58;77.77;99254.30;25106;1315;3049176;-70
2022/04/17 04:36:20;;;;;;;28.30;16.10;;;;;;;7.50;78.37;99250.34;25165;1318;3054642;-70
2022/04/17 04:39:06;;;;;;;14.60;7.60;;;;;;;7.99;76.89;99248.83;25182;1316;3055361;-70
2022/04/17 04:42:13;;;;;;;12.80;5.10;;;;;;;8.19;75.33;99256.65;25157;1315;3057085;-72
2022/04/17 04:48:02;;;;;;;8.30;3.80;;;;;;;7.69;76.66;99271.52;25218;1315;3057045;-70
2022/04/17 04:51:03;;;;;;;8.10;4.40;;;;;;;7.65;76.23;99275.89;25093;1315;3051230;-70
2022/04/17 04:54:07;;;;;;;7.50;4.30;;;;;;;7.20;77.90;99291.23;25164;1315;3068920;-68
2022/04/17 05:00:30;;;;;;;12.00;5.70;;;;;;;8.05;76.66;99290.55;25120;1316;3055335;-71
2022/04/17 05:03:50;;;;;;;;;;;;;;;;;;;;;
2022/04/17 05:06:34;;;;;;;16.30;10.60;;;;;;;7.71;76.32;99302.24;25093;1315;3056877;-67
2022/04/17 05:09:51;;;;;;;17.50;11.60;;;;;;;7.47;76.99;99297.73;25101;1315;3052415;-71
2022/04/17 05:13:24;;;;;;;17.70;11.60;;;;;;;7.30;77.67;99296.14;25178;1315;3052080;-70
2022/04/17 05:16:50;;;;;;;14.30;8.60;;;;;;;7.28;78.29;99289.11;25204;1315;3051696;-69
2022/04/17 05:19:45;;;;;;;13.10;8.10;;;;;;;7.89;76.33;99287.20;25100;1316;3071782;-69
2022/04/17 05:22:43;;;;;;;13.80;7.60;;;;;;;7.98;75.39;99276.64;25078;1318;3049818;-70
2022/04/17 05:25:57;;;;;;;13.60;8.10;;;;;;;7.74;75.98;99268.79;25192;1315;3052301;-71
2022/04/17 05:29:14;;;;;;;18.50;9.40;;;;;;;7.44;76.88;99272.40;25710;1315;3055708;-69
2022/04/17 05:32:08;;;;;;;14.50;8.30;;;;;;;7.21;77.91;99278.77;25730;1315;3056990;-69
2022/04/17 05:34:58;;;;;;;7.90;4.40;;;;;;;7.10;78.31;99284.02;25273;1315;3050140;-71
2022/04/17 05:37:48;;;;;;;7.60;4.30;;;;;;;7.69;76.39;99276.75;25179;1315;3054807;-74
2022/04/17 05:41:08;;;;;;;8.50;4.50;;;;;;;7.63;76.10;99281.73;25152;1315;3051635;-71
2022/04/17 05:44:13;;;;;;;8.30;4.00;;;;;;;7.63;76.12;99288.71;25108;1315;3071560;-71
2022/04/17 05:47:14;;;;;;;13.00;8.00;;;;;;;7.70;75.70;99295.34;25212;1315;3049237;-71
2022/04/17 05:50:07;;;;;;;12.00;7.50;;;;;;;7.48;76.27;99303.80;25180;1315;3052566;-71
2022/04/17 05:52:44;;;;;;;8.60;4.60;;;;;;;7.28;77.50;99308.06;25148;1315;3055352;-68
2022/04/17 05:56:21;;;;;;;9.00;4.70;;;;;;;7.88;75.83;99300.86;25093;1315;3056881;-73
2022/04/17 05:58:56;;;;;;;8.00;4.80;;;;;;;8.23;74.03;99297.64;25216;1315;3050642;-71
2022/04/17 06:01:27;;;;;;;8.10;4.30;;;;;;;8.33;73.43;99296.63;25144;1315;3028316;-74
2022/04/17 06:04:03;;;;;;;9.20;4.90;;;;;;;7.92;74.41;99310.06;25174;1315;3027564;-72
2022/04/17 06:06:40;;;;;;;13.60;7.70;;;;;;;7.81;74.53;99308.16;25127;1315;3068551;-72
2022/04/17 06:09:36;;;;;;;12.80;7.60;;;;;;;7.51;75.69;99323.67;25168;1315;3047974;-70
2022/04/17 06:12:15;;;;;;;;;;;;;;;7.45;76.67;99323.80;25211;1315;3050919;-70
2022/04/17 06:14:53;;;;;;;14.40;6.90;;;;;;;8.25;74.52;99320.21;25150;1315;3053198;-70
2022/04/17 06:18:17;;;;;;;12.20;7.40;;;;;;;8.95;72.54;99318.87;25211;1315;3059330;-72
2022/04/17 06:21:19;;;;;;;18.20;10.10;;;;;;;8.93;71.72;99311.61;23574;1321;3050458;-71
2022/04/17 06:24:00;;;;;;;15.20;10.20;;;;;;;8.88;71.97;99316.63;25021;1321;3055393;-70
2022/04/17 06:26:55;;;;;;;;;;;;;;;;;;;;;
2022/04/17 06:29:34;;;;;;;25.40;12.20;;;;;;;8.33;73.21;99328.88;24975;1320;3052077;-71
2022/04/17 06:32:45;;;;;;;27.60;14.40;;;;;;;8.15;73.90;99337.11;25011;1321;3052680;-70
2022/04/17 06:35:53;;;;;;;18.70;8.50;;;;;;;8.13;74.37;99340.70;25022;1321;3052390;-73
2022/04/17 06:38:23;;;;;;;17.40;9.30;;;;;;;8.93;72.07;99348.17;24960;1321;3068376;-70
2022/04/17 06:40:56;;;;;;;22.50;12.40;;;;;;;9.02;71.28;99346.06;25043;1320;3049969;-72
2022/04/17 06:43:29;;;;;;;17.20;9.90;;;;;;;8.94;71.50;99347.58;25034;1321;3026254;-73
2022/04/17 06:46:13;;;;;;;18.60;11.20;;;;;;;8.72;71.73;99343.52;25073;1321;3055345;-71
2022/04/17 06:48:56;;;;;;;17.50;11.10;;;;;;;8.53;72.59;99341.27;25022;1321;3059240;-70
2022/04/17 06:51:31;;;;;;;22.70;12.70;;;;;;;8.42;72.91;99343.74;25022;1318;3050078;-71
2022/04/17 06:54:02;;;;;;;20.10;12.70;;;;;;;8.20;73.48;99349.95;25094;1316;3026387;-72
2022/04/17 06:56:41;;;;;;;13.50;6.50;;;;;;;8.13;73.93;99353.43;25177;1315;3026777;-73
2022/04/17 06:59:27;;;;;;;9.80;5.40;;;;;;;8.77;72.45;99350.95;25122;1316;3071394;-71
2022/04/17 07:02:02;;;;;;;10.10;5.90;;;;;;;9.24;70.55;99351.16;25203;1313;3049273;-70
2022/04/17 07:04:39;;;;;;;9.40;6.10;;;;;;;9.14;70.64;99356.08;25117;1316;3053197;-71
2022/04/17 07:07:27;;;;;;;11.40;7.20;;;;;;;8.91;70.81;99357.54;25116;1315;3054027;-72
2022/04/17 07:10:23;;;;;;;12.30;7.30;;;;;;;8.50;72.43;99371.95;25129;1315;3057335;-71
2022/04/17 07:13:07;;;;;;;13.40;8.30;;;;;;;8.46;72.77;99373.56;25134;1315;3052899;-70
2022/04/17 07:16:06;;;;;;;15.50;8.80;;;;;;;8.28;73.66;99375.56;25160;1315;3053221;-70
2022/04/17 07:18:44;;;;;;;12.80;6.30;;;;;;;8.22;73.59;99384.59;25158;1315;3051565;-69
2022/04/17 07:21:33;;;;;;;6.70;3.90;;;;;;;8.16;74.13;99382.27;25116;1315;3069588;-69
2022/04/17 07:24:02;;;;;;;6.60;3.30;;;;;;;8.78;72.73;99377.80;25238;1315;3026530;-70
2022/04/17 07:26:38;;;;;;;8.50;4.50;;;;;;;9.14;71.09;99385.23;25151;1315;3026252;-69
2022/04/17 07:29:13;;;;;;;8.30;4.50;;;;;;;9.23;70.61;99387.39;25150;1318;3052946;-72
2022/04/17 07:31:54;;;;;;;8.20;4.50;;;;;;;8.78;71.39;99380.59;25207;1315;3056554;-71
2022/04/17 07:34:27;;;;;;;7.50;3.90;;;;;;;8.46;72.42;99384.21;25222;1314;3026486;-70
2022/04/17 07:36:57;;;;;;;9.50;4.50;;;;;;;8.34;73.11;99383.29;25203;1315;3026347;-70
2022/04/17 07:39:26;;;;;;;16.00;10.30;;;;;;;8.33;73.14;99382.09;25189;1315;3028651;-71
2022/04/17 07:42:01;;;;;;;15.90;9.50;;;;;;;8.04;73.95;99373.10;25194;1315;3026503;-70
2022/04/17 07:44:32;;;;;;;10.30;5.80;;;;;;;7.96;74.68;99365.18;25108;1315;3027347;-71
2022/04/17 07:47:22;;;;;;;15.20;8.50;;;;;;;8.92;72.82;99360.58;25155;1315;3054929;-70
2022/04/17 07:49:51;;;;;;;15.50;7.80;;;;;;;9.46;70.13;99355.14;25106;1312;3026853;-72
2022/04/17 07:52:23;;;;;;;11.80;6.90;;;;;;;9.35;69.80;99348.60;25123;1312;3029819;-72
2022/04/17 07:54:58;;;;;;;14.60;7.20;;;;;;;9.19;70.10;99350.39;25142;1313;3029434;-71
2022/04/17 07:57:28;;;;;;;8.90;5.80;;;;;;;9.01;70.62;99355.55;25188;1312;3053204;-73
2022/04/17 08:00:00;;;;;;;8.20;5.20;;;;;;;8.69;71.57;99355.77;25189;1312;3027182;-73
2022/04/17 08:02:49;;;;;;;9.30;4.80;;;;;;;8.44;72.34;99359.88;25172;1315;3028011;-75
2022/04/17 08:05:23;;;;;;;8.80;5.00;;;;;;;8.32;72.68;99360.70;25154;1312;3052156;-71
2022/04/17 08:08:12;;;;;;;9.00;4.20;;;;;;;8.36;72.67;99357.67;25119;1315;3051638;-72
2022/04/17 08:10:42;;;;;;;12.20;7.60;;;;;;;8.89;71.46;99356.42;25124;1312;3025959;-72
2022/04/17 08:13:22;;;;;;;15.60;9.20;;;;;;;9.04;70.55;99352.42;25182;1312;3059293;-72
2022/04/17 08:15:55;;;;;;;14.70;7.50;;;;;;;9.08;70.33;99354.64;25142;1316;3026758;-70
2022/04/17 08:18:48;;;;;;;10.60;5.40;;;;;;;8.92;70.76;99359.92;25156;1315;3055688;-71
2022/04/17 08:21:20;;;;;;;11.50;5.30;;;;;;;8.51;72.28;99363.70;25183;1313;3050584;-73
2022/04/17 08:23:55;;;;;;;11.00;5.80;;;;;;;8.34;72.83;99361.80;25134;1315;3069381;-72
2022/04/17 08:26:31;;;;;;;10.90;7.10;;;;;;;8.37;72.98;99358.63;25160;1316;3053762;-71
2022/04/17 08:29:03;;;;;;;10.70;5.90;;;;;;;8.28;73.25;99353.21;25139;1312;3028939;-73
2022/04/17 08:31:34;;;;;;;7.00;4.10;;;;;;;8.11;74.22;99349.71;25177;1315;3027392;-71
2022/04/17 08:34:04;;;;;;;8.50;3.70;;;;;;;8.68;72.78;99345.48;25177;1311;3028555;-71
2022/04/17 08:36:34;;;;;;;8.20;3.80;;;;;;;9.30;70.55;99348.70;25193;1315;3026593;-71
2022/04/17 08:39:09;;;;;;;5.90;3.60;;;;;;;9.52;69.32;99349.20;25165;1314;3026047;-71
2022/04/17 08:41:40;;;;;;;7.80;3.90;;;;;;;9.32;69.22;99351.18;25193;1312;3054661;-72
2022/04/17 08:44:13;;;;;;;9.80;6.00;;;;;;;8.95;69.96;99348.71;25068;1316;3071029;-70
2022/04/17 08:46:45;;;;;;;9.20;5.20;;;;;;;8.80;70.51;99349.05;25204;1312;3029713;-71
2022/04/17 08:49:20;;;;;;;9.40;5.20;;;;;;;8.70;71.13;99350.63;25114;1315;3051822;-70
2022/04/17 08:51:50;;;;;;;7.00;3.90;;;;;;;8.69;71.23;99343.00;25120;1316;3026465;-70
2022/04/17 08:54:27;;;;;;;7.90;3.90;;;;;;;8.44;71.80;99340.65;25213;1313;3026772;-72
2022/04/17 08:57:04;;;;;;;7.10;2.80;;;;;;;8.57;72.02;99335.77;25096;1316;3052722;-70
2022/04/17 08:59:54;;;;;;;6.70;3.40;;;;;;;9.49;69.85;99331.89;25216;1315;3053269;-71
2022/04/17 09:02:34;;;;;;;8.00;3.70;;;;;;;10.05;67.20;99330.50;25238;1315;3026196;-73
2022/04/17 09:05:20;;;;;;;5.60;3.50;;;;;;;9.95;66.85;99323.77;25096;1313;3071542;-72
2022/04/17 09:08:24;;;;;;;6.50;3.20;;;;;;;9.77;67.37;99322.70;25177;1312;3049185;-70
2022/04/17 09:11:17;;;;;;;5.70;3.30;;;;;;;9.70;67.47;99320.83;25168;1312;3052330;-73
2022/04/17 09:14:09;;;;;;;5.50;3.10;;;;;;;9.70;67.51;99320.14;25122;1315;3052720;-72
2022/04/17 09:16:54;;;;;;;5.50;2.90;;;;;;;9.67;67.52;99321.21;25220;1312;3026951;-72
2022/04/17 09:19:36;;;;;;;5.30;3.20;;;;;;;9.18;68.80;99325.98;25209;1312;3052636;-72
2022/04/17 09:22:19;;;;;;;6.20;3.50;;;;;;;9.07;69.32;99326.21;25267;1313;3056177;-72
2022/04/17 09:24:56;;;;;;;7.00;3.40;;;;;;;9.13;69.17;99324.50;25145;1315;3054038;-70
2022/04/17 09:28:08;;;;;;;6.60;3.00;;;;;;;9.13;69.26;99320.63;25181;1315;3068857;-71
2022/04/17 09:30:48;;;;;;;5.10;3.10;;;;;;;8.82;70.24;99326.41;25151;1315;3049275;-70
2022/04/17 09:33:53;;;;;;;3.50;2.70;;;;;;;8.73;71.03;99330.76;25132;1316;3052994;-72
2022/04/17 09:36:33;;;;;;;4.50;2.30;;;;;;;9.41;69.01;99327.10;25142;1313;3055515;-71
2022/04/17 09:39:14;;;;;;;3.40;2.30;;;;;;;9.93;67.29;99327.57;25162;1315;3056980;-71
2022/04/17 09:41:55;;;;;;;6.00;2.80;;;;;;;10.01;66.58;99336.13;25119;1315;3052744;-71
2022/04/17 09:44:38;;;;;;;5.90;2.50;;;;;;;9.56;67.32;99337.92;25155;1313;3051556;-71
2022/04/17 09:47:17;;;;;;;6.40;2.50;;;;;;;9.27;68.39;99336.10;25178;1312;3051876;-73
2022/04/17 09:50:09;;;;;;;5.40;3.10;;;;;;;9.23;68.77;99336.16;25149;1315;3071763;-69
2022/04/17 09:52:52;;;;;;;4.90;2.70;;;;;;;9.18;68.51;99329.27;25221;1312;3049469;-70
2022/04/17 09:55:31;;;;;;;8.60;2.60;;;;;;;9.03;68.96;99327.86;25161;1315;3052536;-68
2022/04/17 09:58:05;;;;;;;9.80;2.60;;;;;;;8.87;69.75;99326.46;25295;1312;3052532;-72
2022/04/17 10:00:45;;;;;;;;;;;;;;;8.80;70.01;99324.92;25856;1313;3056570;-71
2022/04/17 10:03:18;;;;;;;5.60;2.80;;;;;;;8.68;70.66;99331.36;25735;1315;3050207;-68
2022/04/17 10:05:54;;;;;;;4.10;2.10;;;;;;;8.58;71.34;99340.98;25725;1312;3052953;-69
2022/04/17 10:08:28;;;;;;;3.20;2.10;;;;;;;9.25;69.61;99333.96;25190;1313;3051749;-72
2022/04/17 10:11:00;;;;;;;3.60;2.40;;;;;;;9.38;68.43;99337.40;25144;1312;3026260;-74
2022/04/17 10:13:31;;;;;;;4.50;2.20;;;;;;;9.38;68.48;99339.49;25139;1315;3026473;-71
2022/04/17 10:16:01;;;;;;;3.50;2.30;;;;;;;9.39;68.28;99339.79;25206;1312;3027140;-71
2022/04/17 10:18:40;;;;;;;3.60;2.70;;;;;;;9.19;68.56;99347.21;25180;1313;3051165;-70
2022/04/17 10:21:15;;;;;;;4.30;2.40;;;;;;;8.86;69.45;99349.95;25175;1316;3055110;-72
2022/04/17 10:23:45;;;;;;;4.90;2.70;;;;;;;8.87;69.39;99350.77;25142;1315;3026587;-71
2022/04/17 10:26:14;;;;;;;5.50;2.70;;;;;;;8.80;69.64;99355.52;25149;1316;3026469;-70
2022/04/17 10:29:05;;;;;;;3.90;2.60;;;;;;;8.69;69.88;99354.02;25115;1316;3054800;-70
2022/04/17 10:31:46;;;;;;;5.20;2.90;;;;;;;8.85;69.86;99355.05;25129;1312;3026735;-68
2022/04/17 10:34:34;;;;;;;4.10;2.80;;;;;;;9.03;68.91;99357.38;25138;1312;3049529;-67
2022/04/17 10:37:37;;;;;;;3.00;1.90;;;;;;;9.20;68.63;99359.23;25142;1314;3056639;-69
2022/04/17 10:40:10;;;;;;;4.80;2.10;;;;;;;10.06;66.93;99354.38;25173;1312;3052539;-67
2022/04/17 10:43:00;;;;;;;3.00;2.10;;;;;;;10.42;64.91;99358.73;25194;1315;3056182;-68
2022/04/17 10:45:32;;;;;;;3.70;2.00;;;;;;;10.14;65.16;99359.39;25144;1316;3049904;-72
2022/04/17 10:48:03;;;;;;;3.20;2.20;;;;;;;9.93;65.78;99353.78;25123;1313;3026695;-71
2022/04/17 10:50:50;;;;;;;4.10;2.10;;;;;;;9.81;66.03;99354.99;25189;1315;3026630;-69
2022/04/17 10:53:23;;;;;;;4.60;2.80;;;;;;;9.61;66.60;99354.98;25107;1313;3070981;-71
2022/04/17 10:56:05;;;;;;;3.80;2.40;;;;;;;9.70;66.74;99349.38;25152;1314;3049732;-68
2022/04/17 10:58:35;;;;;;;3.40;2.30;;;;;;;9.55;66.85;99349.35;25186;1312;3055135;-70
2022/04/17 11:01:04;;;;;;;4.80;3.40;;;;;;;9.61;67.07;99352.36;25182;1312;3026279;-71
2022/04/17 11:03:35;;;;;;;3.30;2.20;;;;;;;9.50;67.27;99359.45;25121;1315;3027596;-69
2022/04/17 11:06:39;;;;;;;2.80;2.10;;;;;;;9.28;67.83;99363.34;25168;1315;3028575;-72
2022/04/17 11:09:18;;;;;;;3.60;2.50;;;;;;;8.99;68.82;99363.74;24932;1321;3052788;-72
2022/04/17 11:12:10;;;;;;;4.80;2.50;;;;;;;8.88;69.32;99350.88;25113;1313;3051193;-69
2022/04/17 11:15:02;;;;;;;4.20;1.90;;;;;;;8.81;69.98;99351.25;25097;1313;3067940;-72
2022/04/17 11:17:35;;;;;;;3.00;1.80;;;;;;;9.60;67.85;99342.96;25126;1313;3053564;-69
2022/04/17 11:20:06;;;;;;;3.70;2.40;;;;;;;9.92;66.55;99340.70;25161;1316;3027372;-68
2022/04/17 11:22:36;;;;;;;2.50;2.00;;;;;;;10.01;65.83;99342.10;25087;1315;3069808;-71
2022/04/17 11:25:12;;;;;;;4.50;2.60;;;;;;;9.95;65.87;99339.31;25205;1313;3026404;-69
2022/04/17 11:27:49;;;;;;;5.50;2.70;;;;;;;9.55;67.10;99342.55;25141;1316;3051730;-68
2022/04/17 11:30:18;;;;;;;3.80;2.80;;;;;;;9.28;67.96;99341.63;25163;1315;3051721;-69
2022/04/17 11:32:49;;;;;;;6.10;2.70;;;;;;;9.02;68.92;99345.73;25139;1313;3026613;-70
2022/04/17 11:35:39;;;;;;;4.10;2.30;;;;;;;8.97;69.02;99346.73;25114;1315;3054880;-70
2022/04/17 11:38:08;;;;;;;3.40;2.50;;;;;;;8.86;69.78;99345.56;25110;1318;3028610;-70
2022/04/17 11:40:41;;;;;;;3.80;2.30;;;;;;;8.83;69.52;99344.14;25145;1315;3026473;-72
2022/04/17 11:43:12;;;;;;;3.50;2.40;;;;;;;8.79;69.52;99339.67;25143;1315;3028413;-68
2022/04/17 11:45:44;;;;;;;8.40;3.10;;;;;;;8.67;70.25;99339.44;25159;1312;3026584;-71
2022/04/17 11:48:18;;;;;;;3.30;2.30;;;;;;;8.78;70.29;99338.01;25164;1315;3026566;-68
2022/04/17 11:50:53;;;;;;;4.30;3.00;;;;;;;9.44;68.20;99336.16;25134;1312;3071262;-72
2022/04/17 11:53:23;;;;;;;3.40;2.30;;;;;;;10.08;65.98;99339.58;25138;1314;3048976;-71
2022/04/17 11:55:52;;;;;;;4.40;2.80;;;;;;;10.05;65.54;99335.54;25182;1312;3026141;-67
2022/04/17 11:58:23;;;;;;;4.40;2.50;;;;;;;9.95;65.44;99336.52;25135;1313;3026284;-69
2022/04/17 12:00:57;;;;;;;4.70;2.90;;;;;;;9.76;65.91;99331.88;25129;1315;3048061;-71
2022/04/17 12:03:36;;;;;;;4.40;2.70;;;;;;;9.54;66.26;99342.27;25159;1312;3026815;-68
2022/04/17 12:06:06;;;;;;;5.60;3.00;;;;;;;9.42;66.77;99345.38;25114;1315;3052625;-73
2022/04/17 12:08:38;;;;;;;4.60;3.00;;;;;;;9.19;67.16;99352.80;25180;1312;3026128;-71
2022/04/17 12:11:08;;;;;;;6.10;2.90;;;;;;;9.14;67.58;99349.05;25174;1315;3026804;-69
2022/04/17 12:13:57;;;;;;;8.20;3.70;;;;;;;8.96;68.51;99346.09;25138;1313;3053021;-70
2022/04/17 12:16:28;;;;;;;5.50;3.60;;;;;;;8.82;69.06;99350.31;25160;1312;3027839;-69
2022/04/17 12:19:02;;;;;;;5.50;3.50;;;;;;;8.70;69.61;99355.86;25184;1312;3068390;-68
2022/04/17 12:21:31;;;;;;;6.80;3.80;;;;;;;8.73;69.79;99355.90;25126;1312;3026896;-71
2022/04/17 12:24:22;;;;;;;3.90;2.50;;;;;;;8.80;69.74;99354.62;25185;1313;3052056;-67
2022/04/17 12:26:51;;;;;;;5.70;2.90;;;;;;;9.60;68.33;99355.85;25110;1315;3026172;-68
2022/04/17 12:29:20;;;;;;;5.50;3.00;;;;;;;10.04;66.08;99354.67;25163;1316;3028083;-70
2022/04/17 12:31:48;;;;;;;5.60;3.00;;;;;;;9.95;65.74;99351.75;25111;1315;3057151;-69
2022/04/17 12:34:22;;;;;;;4.10;2.90;;;;;;;9.83;66.22;99346.48;25153;1312;3027239;-69
2022/04/17 12:36:51;;;;;;;5.20;3.40;;;;;;;9.54;67.03;99350.46;25111;1312;3051035;-71
2022/04/17 12:39:31;;;;;;;4.90;3.40;;;;;;;9.51;67.01;99349.75;25149;1312;3026856;-67
2022/04/17 12:42:14;;;;;;;7.40;3.30;;;;;;;9.53;66.88;99344.42;25121;1315;3069497;-68
2022/04/17 12:44:47;;;;;;;7.50;3.60;;;;;;;9.21;67.58;99340.49;25149;1314;3049267;-70
2022/04/17 12:47:16;;;;;;;6.80;4.20;;;;;;;9.18;67.78;99330.85;25177;1312;3026431;-65
2022/04/17 12:49:45;;;;;;;5.90;3.50;;;;;;;9.10;68.36;99330.79;25086;1312;3067554;-68
2022/04/17 12:52:20;;;;;;;6.00;3.50;;;;;;;8.96;68.56;99336.13;25157;1312;3026585;-69
2022/04/17 12:54:49;;;;;;;7.20;3.60;;;;;;;8.70;69.76;99339.30;25126;1315;3027098;-69
2022/04/17 12:57:20;;;;;;;6.30;3.60;;;;;;;8.75;69.86;99338.52;25142;1315;3026387;-68
2022/04/17 12:59:57;;;;;;;5.70;2.60;;;;;;;8.88;69.58;99337.23;25084;1315;3058753;-70
2022/04/17 13:02:26;;;;;;;6.00;2.90;;;;;;;9.54;67.89;99333.48;25160;1315;3026450;-70
2022/04/17 13:04:57;;;;;;;5.80;2.60;;;;;;;9.93;66.24;99328.05;25094;1315;3051571;-68
2022/04/17 13:07:33;;;;;;;5.50;3.40;;;;;;;9.97;65.81;99327.16;25143;1315;3026800;-69
2022/04/17 13:10:05;;;;;;;5.80;3.00;;;;;;;9.90;65.89;99329.27;25135;1315;3049529;-70